Time;durP1;ratioP1;P1;durP2;ratioP2;P2;SDS_P1;SDS_P2;PMS_P1;PMS_P2;Temp;Humidity;BMP_temperature;BMP_pressure;BME280_temperature;BME280_humidity;BME280_pressure;Samples;Min_cycle;Max_cycle;Signal;HPM_P1;HPM_P2
2021/03/29 00:00:28;;;;;;;16.65;6.40;;;11.50;99.90;;;;;;5073380;28;20025;-72
2021/03/29 00:02:54;;;;;;;16.05;7.03;;;11.40;99.90;;;;;;5076286;28;20030;-72
2021/03/29 00:05:23;;;;;;;16.23;6.97;;;11.30;99.90;;;;;;5073085;28;20027;-71
2021/03/29 00:07:53;;;;;;;14.98;6.40;;;11.30;99.90;;;;;;5070243;28;20504;-72
2021/03/29 00:10:20;;;;;;;11.63;6.18;;;11.30;99.90;;;;;;5073126;28;20554;-71
2021/03/29 00:12:48;;;;;;;16.20;6.90;;;11.30;99.90;;;;;;5077505;28;20070;-71
2021/03/29 00:15:17;;;;;;;13.57;6.60;;;11.20;99.90;;;;;;5068429;28;20029;-72
2021/03/29 00:17:44;;;;;;;17.05;6.47;;;11.20;99.90;;;;;;5071074;28;20063;-72
2021/03/29 00:20:11;;;;;;;16.67;6.75;;;11.20;99.90;;;;;;5075571;28;20061;-71
2021/03/29 00:22:39;;;;;;;15.70;6.57;;;11.20;99.90;;;;;;5073276;28;20441;-72
2021/03/29 00:25:05;;;;;;;14.10;6.60;;;11.20;99.90;;;;;;5074022;28;20028;-72
2021/03/29 00:27:31;;;;;;;17.70;6.25;;;11.20;99.90;;;;;;5072257;28;20037;-72
2021/03/29 00:29:57;;;;;;;16.05;6.63;;;11.10;99.90;;;;;;5068818;28;20409;-71
2021/03/29 00:32:23;;;;;;;15.68;5.95;;;11.20;99.90;;;;;;5068919;28;20533;-72
2021/03/29 00:34:49;;;;;;;17.42;5.60;;;11.10;99.90;;;;;;5072252;28;20047;-72
2021/03/29 00:37:16;;;;;;;11.57;5.90;;;11.10;99.90;;;;;;5076316;28;20028;-72
2021/03/29 00:39:42;;;;;;;15.68;5.90;;;11.10;99.90;;;;;;5070281;28;20053;-72
2021/03/29 00:42:08;;;;;;;10.07;5.38;;;11.10;99.90;;;;;;5069622;28;20103;-72
2021/03/29 00:44:35;;;;;;;15.68;6.40;;;11.10;99.90;;;;;;5075978;28;20523;-72
2021/03/29 00:47:02;;;;;;;16.63;5.95;;;11.10;99.90;;;;;;5070741;28;20031;-72
2021/03/29 00:49:28;;;;;;;14.95;5.78;;;11.10;99.90;;;;;;5069941;28;20020;-72
2021/03/29 00:51:54;;;;;;;13.23;5.25;;;11.10;99.90;;;;;;5070343;28;20041;-72
2021/03/29 00:54:21;;;;;;;14.15;5.22;;;11.00;99.90;;;;;;5068749;28;20119;-72
2021/03/29 00:56:47;;;;;;;13.82;5.72;;;11.10;99.90;;;;;;5070745;28;20037;-73
2021/03/29 00:59:14;;;;;;;15.05;4.75;;;11.00;99.90;;;;;;5066340;28;20021;-72
2021/03/29 01:01:48;;;;;;;9.05;4.88;;;10.90;99.90;;;;;;5071486;28;20107;-72
2021/03/29 01:04:15;;;;;;;14.05;4.85;;;11.00;99.90;;;;;;5071239;28;20024;-73
2021/03/29 01:06:42;;;;;;;15.95;5.25;;;11.00;99.90;;;;;;5065538;28;20029;-72
2021/03/29 01:09:15;;;;;;;12.27;5.05;;;11.00;99.90;;;;;;5070304;28;20031;-72
2021/03/29 01:11:47;;;;;;;14.68;5.20;;;11.00;99.90;;;;;;5072302;28;20020;-72
2021/03/29 01:14:37;;;;;;;14.73;5.10;;;11.00;99.90;;;;;;5068900;28;20033;-72
2021/03/29 01:17:12;;;;;;;10.73;5.18;;;10.90;99.90;;;;;;5069210;28;20298;-72
2021/03/29 01:19:51;;;;;;;11.23;4.50;;;10.80;99.90;;;;;;5070620;28;20031;-71
2021/03/29 01:22:22;;;;;;;11.55;4.75;;;10.80;99.90;;;;;;5065582;28;20431;-72
2021/03/29 01:25:08;;;;;;;10.95;4.55;;;10.80;99.90;;;;;;5075373;28;20080;-73
2021/03/29 01:27:42;;;;;;;13.02;4.80;;;10.80;99.90;;;;;;5070074;28;20074;-72
2021/03/29 01:30:09;;;;;;;9.95;4.68;;;10.80;99.90;;;;;;5071203;28;20387;-72
2021/03/29 01:32:37;;;;;;;9.52;4.57;;;10.80;99.90;;;;;;5072907;28;20480;-72
2021/03/29 01:35:09;;;;;;;10.38;4.13;;;10.80;99.90;;;;;;5080517;28;20480;-72
2021/03/29 01:37:37;;;;;;;14.85;5.53;;;10.80;99.90;;;;;;5073730;28;20021;-72
2021/03/29 01:40:04;;;;;;;12.65;4.53;;;10.80;99.90;;;;;;5069208;28;20111;-72
2021/03/29 01:42:30;;;;;;;8.85;4.78;;;10.80;99.90;;;;;;5073895;28;20046;-72
2021/03/29 01:44:56;;;;;;;13.35;5.43;;;10.80;99.90;;;;;;5071143;28;20032;-72
2021/03/29 01:47:22;;;;;;;12.95;4.35;;;10.80;99.90;;;;;;5073301;28;20024;-71
2021/03/29 01:49:50;;;;;;;10.02;4.07;;;10.70;99.90;;;;;;5075770;28;20016;-72
2021/03/29 01:52:16;;;;;;;14.85;5.45;;;10.80;99.90;;;;;;5070563;28;20020;-72
2021/03/29 01:54:42;;;;;;;9.98;4.55;;;10.80;99.90;;;;;;5071590;28;20048;-73
2021/03/29 01:57:10;;;;;;;15.32;4.57;;;10.70;99.90;;;;;;5064110;28;20416;-72
2021/03/29 01:59:36;;;;;;;13.48;4.13;;;10.70;99.90;;;;;;5070472;28;20020;-71
2021/03/29 02:02:04;;;;;;;11.35;4.53;;;10.70;99.90;;;;;;5071681;28;20434;-73
2021/03/29 02:04:31;;;;;;;15.02;4.70;;;10.60;99.90;;;;;;5064046;28;20052;-72
2021/03/29 02:06:58;;;;;;;11.02;4.13;;;10.60;99.90;;;;;;5064196;28;20121;-72
2021/03/29 02:09:25;;;;;;;13.60;4.57;;;10.60;99.90;;;;;;5070786;28;20024;-72
2021/03/29 02:11:51;;;;;;;12.10;4.53;;;10.60;99.90;;;;;;5073668;28;20031;-72
2021/03/29 02:14:20;;;;;;;10.05;4.00;;;10.60;99.90;;;;;;5069416;28;20049;-72
2021/03/29 02:16:47;;;;;;;17.48;5.15;;;10.60;99.90;;;;;;5065230;28;20021;-72
2021/03/29 02:19:13;;;;;;;13.38;4.03;;;10.60;99.90;;;;;;5068507;28;20078;-72
2021/03/29 02:21:41;;;;;;;11.65;4.00;;;10.60;99.90;;;;;;5070365;28;20021;-72
2021/03/29 02:24:09;;;;;;;8.40;3.53;;;10.60;99.90;;;;;;5065946;28;20025;-72
2021/03/29 02:26:38;;;;;;;16.80;4.25;;;10.60;99.90;;;;;;5069067;28;20017;-72
2021/03/29 02:29:05;;;;;;;9.98;3.63;;;10.60;99.90;;;;;;5073182;28;20371;-72
2021/03/29 02:31:31;;;;;;;10.25;4.38;;;10.50;99.90;;;;;;5071553;28;20020;-72
2021/03/29 02:33:59;;;;;;;15.07;4.13;;;10.50;99.90;;;;;;5067065;28;20060;-71
2021/03/29 02:36:25;;;;;;;10.55;3.65;;;10.40;99.90;;;;;;5070611;28;20417;-72
2021/03/29 02:38:52;;;;;;;10.93;3.80;;;10.50;99.90;;;;;;5068931;28;20029;-72
2021/03/29 02:41:23;;;;;;;8.63;4.07;;;10.50;99.90;;;;;;5067572;28;20104;-72
2021/03/29 02:43:49;;;;;;;12.45;3.88;;;10.50;99.90;;;;;;5067939;28;20057;-72
2021/03/29 02:46:17;;;;;;;9.65;4.10;;;10.50;99.90;;;;;;5072838;28;20046;-72
2021/03/29 02:48:45;;;;;;;5.53;3.45;;;10.60;99.90;;;;;;5062210;28;20453;-72
2021/03/29 02:51:13;;;;;;;13.13;3.97;;;10.50;99.90;;;;;;5068624;28;20111;-72
2021/03/29 02:53:49;;;;;;;13.95;3.70;;;10.60;99.90;;;;;;5067813;28;20037;-72
2021/03/29 02:56:22;;;;;;;7.45;3.08;;;10.60;99.90;;;;;;5065544;28;20052;-72
2021/03/29 02:58:52;;;;;;;9.63;3.35;;;10.60;99.90;;;;;;5072228;28;20029;-72
2021/03/29 03:01:24;;;;;;;10.50;4.05;;;10.50;99.90;;;;;;5067784;28;20025;-72
2021/03/29 03:03:52;;;;;;;11.70;3.55;;;10.60;99.90;;;;;;5063849;28;20480;-73
2021/03/29 03:06:22;;;;;;;7.20;3.70;;;10.60;99.90;;;;;;5072256;28;20078;-73
2021/03/29 03:08:48;;;;;;;16.33;4.57;;;10.50;99.90;;;;;;5071746;28;20032;-73
2021/03/29 03:11:14;;;;;;;10.88;3.10;;;10.50;99.90;;;;;;5072335;28;20036;-74
2021/03/29 03:13:43;;;;;;;6.45;3.60;;;10.50;99.90;;;;;;5075116;28;20431;-73
2021/03/29 03:16:10;;;;;;;11.80;4.47;;;10.50;99.90;;;;;;5075083;28;20017;-74
2021/03/29 03:18:36;;;;;;;10.63;3.95;;;10.50;99.90;;;;;;5062948;28;20028;-74
2021/03/29 03:21:03;;;;;;;9.93;3.40;;;10.50;99.90;;;;;;5074516;28;20028;-73
2021/03/29 03:23:28;;;;;;;12.23;3.83;;;10.60;99.90;;;;;;5067848;28;20032;-73
2021/03/29 03:25:54;;;;;;;9.50;3.95;;;10.50;99.90;;;;;;5078350;28;20024;-74
2021/03/29 03:28:23;;;;;;;16.73;3.67;;;10.50;99.90;;;;;;5075154;28;20059;-74
2021/03/29 03:30:51;;;;;;;12.77;4.15;;;10.60;99.90;;;;;;5074040;28;20423;-73
2021/03/29 03:33:19;;;;;;;10.95;3.28;;;10.50;99.90;;;;;;5076688;28;20033;-73
2021/03/29 03:35:46;;;;;;;12.18;4.40;;;10.50;99.90;;;;;;5070396;28;20033;-73
2021/03/29 03:38:21;;;;;;;12.82;3.78;;;10.60;99.90;;;;;;5074545;28;20051;-74
2021/03/29 03:41:09;;;;;;;16.55;4.28;;;10.50;99.90;;;;;;5073663;28;20063;-73
2021/03/29 03:43:37;;;;;;;9.48;3.35;;;10.50;99.90;;;;;;5066757;28;20052;-72
2021/03/29 03:46:08;;;;;;;9.93;3.63;;;10.50;99.90;;;;;;5072745;28;20066;-73
2021/03/29 03:48:36;;;;;;;11.77;4.05;;;10.50;99.90;;;;;;5075536;28;20052;-73
2021/03/29 03:51:02;;;;;;;14.38;4.38;;;10.50;99.90;;;;;;5074821;28;20100;-73
2021/03/29 03:53:29;;;;;;;9.95;4.68;;;10.50;99.90;;;;;;5069506;28;20552;-73
2021/03/29 03:55:57;;;;;;;12.20;4.70;;;10.40;99.90;;;;;;5070039;28;20099;-73
2021/03/29 03:58:24;;;;;;;11.55;4.32;;;10.40;99.90;;;;;;5072660;28;20104;-73
2021/03/29 04:00:50;;;;;;;9.38;4.18;;;10.30;99.90;;;;;;5080959;28;20107;-73
2021/03/29 04:03:16;;;;;;;13.48;4.20;;;10.30;99.90;;;;;;5070162;28;20027;-73
2021/03/29 04:05:41;;;;;;;10.60;4.43;;;10.30;99.90;;;;;;5069298;28;20397;-73
2021/03/29 04:08:09;;;;;;;9.80;3.75;;;10.30;99.90;;;;;;5069482;28;20176;-73
2021/03/29 04:13:01;;;;;;;11.27;3.92;;;10.30;99.90;;;;;;5076659;28;20032;-73
2021/03/29 04:15:26;;;;;;;6.95;3.58;;;10.30;99.90;;;;;;5065105;28;20055;-73
2021/03/29 04:17:52;;;;;;;14.85;4.00;;;10.30;99.90;;;;;;5071439;28;20412;-73
2021/03/29 04:20:18;;;;;;;13.80;4.10;;;10.20;99.90;;;;;;5065879;28;20776;-73
2021/03/29 04:22:44;;;;;;;10.57;4.05;;;10.30;99.90;;;;;;5071854;28;20025;-73
2021/03/29 04:25:12;;;;;;;12.43;4.07;;;10.20;99.90;;;;;;5076411;28;20063;-72
2021/03/29 04:27:37;;;;;;;11.85;3.92;;;10.20;99.90;;;;;;5074066;28;20560;-73
2021/03/29 04:30:06;;;;;;;10.35;3.58;;;10.20;99.90;;;;;;5071067;28;20104;-72
2021/03/29 04:32:32;;;;;;;11.93;4.30;;;10.20;99.90;;;;;;5062982;28;20036;-73
2021/03/29 04:34:57;;;;;;;12.27;3.67;;;10.20;99.90;;;;;;5073083;28;20037;-73
2021/03/29 04:37:23;;;;;;;10.13;4.28;;;10.20;99.90;;;;;;5072057;28;20025;-73
2021/03/29 04:39:49;;;;;;;9.68;3.53;;;10.20;99.90;;;;;;5067025;28;20066;-73
2021/03/29 04:42:15;;;;;;;14.30;4.35;;;10.20;99.90;;;;;;5068894;28;20051;-73
2021/03/29 04:44:40;;;;;;;12.90;4.38;;;10.10;99.90;;;;;;5073468;28;20027;-73
2021/03/29 04:47:06;;;;;;;13.60;4.00;;;10.10;99.90;;;;;;5073718;28;20112;-73
2021/03/29 04:49:32;;;;;;;14.02;3.88;;;10.10;99.90;;;;;;5072966;28;20435;-73
2021/03/29 04:51:57;;;;;;;8.73;3.25;;;10.10;99.90;;;;;;5073622;28;20035;-73
2021/03/29 04:54:23;;;;;;;9.27;4.28;;;10.10;99.90;;;;;;5065891;28;20072;-73
2021/03/29 04:56:49;;;;;;;14.70;4.28;;;10.10;99.90;;;;;;5070298;28;20027;-73
2021/03/29 04:59:14;;;;;;;10.32;3.80;;;10.10;99.90;;;;;;5074961;28;20024;-73
2021/03/29 05:01:40;;;;;;;10.25;3.38;;;10.10;99.90;;;;;;5074699;28;20028;-73
2021/03/29 05:04:06;;;;;;;13.23;3.50;;;10.10;99.90;;;;;;5073468;28;20056;-73
2021/03/29 05:06:32;;;;;;;9.10;3.97;;;10.10;99.90;;;;;;5067106;28;20021;-73
2021/03/29 05:08:58;;;;;;;12.82;3.83;;;10.20;99.90;;;;;;5072592;28;20028;-73
2021/03/29 05:11:25;;;;;;;9.30;3.97;;;10.10;99.90;;;;;;5073045;28;20114;-73
2021/03/29 05:13:51;;;;;;;9.57;4.03;;;10.00;99.90;;;;;;5073866;28;20525;-73
2021/03/29 05:16:16;;;;;;;12.25;4.43;;;10.00;99.90;;;;;;5075221;28;20035;-73
2021/03/29 05:18:42;;;;;;;11.88;3.90;;;10.00;99.90;;;;;;5064763;28;20029;-73
2021/03/29 05:21:08;;;;;;;9.82;3.67;;;10.00;99.90;;;;;;5069119;28;20094;-73
2021/03/29 05:23:33;;;;;;;8.75;3.80;;;10.00;99.90;;;;;;5076115;28;20048;-73
2021/03/29 05:25:59;;;;;;;12.60;4.15;;;10.00;99.90;;;;;;5069071;28;20036;-73
2021/03/29 05:28:24;;;;;;;7.22;3.65;;;9.90;99.90;;;;;;5064772;28;20029;-72
2021/03/29 05:30:50;;;;;;;13.60;4.22;;;10.00;99.90;;;;;;5073881;28;20491;-74
2021/03/29 05:33:16;;;;;;;10.68;3.90;;;9.90;99.90;;;;;;5078866;28;20020;-73
2021/03/29 05:35:42;;;;;;;8.63;3.75;;;9.90;99.90;;;;;;5069097;28;20036;-74
2021/03/29 05:38:07;;;;;;;11.30;3.72;;;9.80;99.90;;;;;;5071175;28;20414;-73
2021/03/29 05:40:33;;;;;;;12.13;4.25;;;9.90;99.90;;;;;;5070986;28;20052;-73
2021/03/29 05:42:59;;;;;;;14.35;5.20;;;9.90;99.90;;;;;;5072608;28;20457;-73
2021/03/29 05:45:29;;;;;;;11.73;4.22;;;9.90;99.90;;;;;;5074012;28;20373;-71
2021/03/29 05:47:55;;;;;;;10.35;4.72;;;9.90;99.90;;;;;;5072091;28;20086;-71
2021/03/29 05:50:21;;;;;;;12.40;4.40;;;9.80;99.90;;;;;;5070311;28;20028;-71
2021/03/29 05:52:47;;;;;;;13.35;4.15;;;9.80;99.90;;;;;;5066742;28;20112;-72
2021/03/29 05:55:16;;;;;;;7.80;3.80;;;9.90;99.90;;;;;;5074665;28;20028;-72
2021/03/29 06:00:35;;;;;;;9.48;3.45;;;9.90;99.90;;;;;;5061915;28;20480;-71
2021/03/29 06:03:31;;;;;;;7.07;3.90;;;9.90;99.90;;;;;;5070841;28;20036;-71
2021/03/29 06:06:01;;;;;;;18.63;4.97;;;9.90;99.90;;;;;;5070378;28;20021;-72
2021/03/29 06:08:28;;;;;;;14.80;4.38;;;9.80;99.90;;;;;;5064294;28;20025;-71
2021/03/29 06:10:56;;;;;;;12.55;3.70;;;9.90;99.90;;;;;;5068767;28;20108;-71
2021/03/29 06:13:25;;;;;;;10.50;3.95;;;9.80;99.90;;;;;;5066140;28;20196;-70
2021/03/29 06:16:08;;;;;;;10.10;4.68;;;9.90;99.90;;;;;;5073570;28;20029;-70
2021/03/29 06:18:36;;;;;;;13.30;3.65;;;9.90;99.90;;;;;;5064239;28;20031;-72
2021/03/29 06:21:07;;;;;;;17.33;4.50;;;9.90;99.90;;;;;;5068150;28;20020;-71
2021/03/29 06:23:33;;;;;;;7.15;3.60;;;9.90;99.90;;;;;;5067298;28;20032;-71
2021/03/29 06:26:19;;;;;;;11.98;3.97;;;9.90;99.90;;;;;;5070827;28;20472;-67
2021/03/29 06:28:45;;;;;;;11.05;3.53;;;9.90;99.90;;;;;;5068596;28;20025;-71
2021/03/29 06:31:23;;;;;;;9.13;3.63;;;10.00;99.90;;;;;;5072546;28;20024;-72
2021/03/29 06:33:50;;;;;;;9.38;4.07;;;10.00;99.90;;;;;;5065789;28;20070;-71
2021/03/29 06:36:40;;;;;;;9.13;3.67;;;10.10;99.90;;;;;;5060504;28;20470;-71
2021/03/29 06:39:14;;;;;;;11.20;3.88;;;10.10;99.90;;;;;;5076376;28;20488;-71
2021/03/29 06:41:40;;;;;;;10.32;3.28;;;10.10;99.90;;;;;;5075179;28;20103;-71
2021/03/29 06:44:07;;;;;;;12.98;3.97;;;10.20;99.90;;;;;;5071355;28;20031;-71
2021/03/29 06:46:34;;;;;;;11.68;3.88;;;10.30;99.90;;;;;;5067132;28;20549;-69
2021/03/29 06:49:01;;;;;;;10.68;3.42;;;10.30;99.90;;;;;;5064953;28;20016;-70
2021/03/29 06:51:32;;;;;;;12.80;4.15;;;10.40;99.90;;;;;;5068410;28;20028;-70
2021/03/29 06:54:02;;;;;;;11.55;3.95;;;10.50;99.90;;;;;;5066888;28;20144;-70
2021/03/29 06:56:29;;;;;;;9.60;4.05;;;10.40;99.90;;;;;;5067611;28;20021;-69
2021/03/29 06:59:05;;;;;;;8.70;4.45;;;10.50;99.90;;;;;;5065258;28;20021;-70
2021/03/29 07:01:35;;;;;;;10.95;3.97;;;10.70;99.90;;;;;;5049275;28;20518;-70
2021/03/29 07:04:03;;;;;;;12.25;3.92;;;10.70;99.90;;;;;;5066029;28;20048;-69
2021/03/29 07:06:31;;;;;;;10.13;3.75;;;10.80;99.90;;;;;;5069485;28;20025;-69
2021/03/29 07:09:07;;;;;;;7.38;3.42;;;10.90;99.90;;;;;;5072894;28;20082;-69
2021/03/29 07:11:37;;;;;;;8.85;4.40;;;10.80;99.90;;;;;;5067417;28;20074;-68
2021/03/29 07:14:04;;;;;;;15.68;4.35;;;10.90;99.90;;;;;;5071061;28;20115;-68
2021/03/29 07:16:30;;;;;;;12.05;3.83;;;11.00;99.90;;;;;;5070503;28;20021;-68
2021/03/29 07:19:04;;;;;;;8.10;4.10;;;11.10;99.90;;;;;;5078638;28;20028;-69
2021/03/29 07:21:31;;;;;;;13.23;4.22;;;11.20;99.90;;;;;;5076383;28;20545;-68
2021/03/29 07:24:08;;;;;;;11.25;3.70;;;11.30;99.90;;;;;;5068851;28;20036;-68
2021/03/29 07:26:52;;;;;;;13.15;4.53;;;11.40;99.90;;;;;;5076353;28;20028;-69
2021/03/29 07:29:22;;;;;;;12.25;4.40;;;11.50;99.90;;;;;;5070622;28;20097;-69
2021/03/29 07:31:51;;;;;;;13.25;3.78;;;11.50;99.90;;;;;;5070237;28;20028;-68
2021/03/29 07:34:18;;;;;;;9.75;4.20;;;11.50;99.90;;;;;;5066458;28;20545;-69
2021/03/29 07:36:50;;;;;;;16.40;4.43;;;11.70;99.90;;;;;;5071980;28;20024;-71
2021/03/29 07:39:21;;;;;;;10.23;3.67;;;11.80;99.90;;;;;;5070250;28;20528;-68
2021/03/29 07:41:47;;;;;;;14.20;3.70;;;12.00;99.90;;;;;;5072769;28;20040;-68
2021/03/29 07:44:19;;;;;;;39.95;35.67;;;12.00;99.90;;;;;;5076527;28;20035;-69
2021/03/29 07:46:48;;;;;;;15.02;4.28;;;12.10;99.90;;;;;;5072642;28;20031;-70
2021/03/29 07:49:48;;;;;;;9.25;4.40;;;12.30;99.90;;;;;;5070852;28;20430;-68
2021/03/29 07:52:34;;;;;;;7.20;3.70;;;12.30;99.90;;;;;;5073730;28;20024;-68
2021/03/29 07:55:03;;;;;;;14.15;3.72;;;12.60;99.90;;;;;;5070362;28;20044;-69
2021/03/29 07:57:44;;;;;;;16.00;3.88;;;12.70;99.90;;;;;;5073963;28;20108;-68
2021/03/29 08:00:25;;;;;;;10.23;3.47;;;12.90;99.90;;;;;;5073532;28;20099;-69
2021/03/29 08:02:59;;;;;;;16.60;4.75;;;12.90;99.90;;;;;;5071873;28;20146;-68
2021/03/29 08:05:44;;;;;;;11.43;3.63;;;13.10;99.90;;;;;;5069261;28;20024;-68
2021/03/29 08:08:25;;;;;;;15.95;3.72;;;13.10;99.90;;;;;;5073080;28;20468;-68
2021/03/29 08:11:14;;;;;;;8.73;3.38;;;13.20;99.90;;;;;;5065363;28;20040;-68
2021/03/29 08:13:43;;;;;;;9.30;4.00;;;13.50;99.90;;;;;;5075374;28;20051;-68
2021/03/29 08:16:10;;;;;;;11.55;3.90;;;13.50;99.90;;;;;;5073097;28;20032;-68
2021/03/29 08:19:19;;;;;;;9.45;3.33;;;13.50;99.90;;;;;;5064557;28;20037;-68
2021/03/29 08:21:52;;;;;;;8.50;3.50;;;13.70;99.90;;;;;;5072993;28;20067;-68
2021/03/29 08:24:18;;;;;;;13.00;3.70;;;13.90;99.90;;;;;;5069481;28;20025;-68
2021/03/29 08:26:44;;;;;;;8.18;3.50;;;14.00;99.90;;;;;;5072548;28;20383;-68
2021/03/29 08:29:14;;;;;;;11.73;4.35;;;14.10;99.90;;;;;;5072608;28;20510;-69
2021/03/29 08:32:05;;;;;;;7.05;3.88;;;14.20;99.90;;;;;;5072743;28;20107;-71
2021/03/29 08:34:47;;;;;;;12.07;4.60;;;14.30;99.90;;;;;;5068657;28;20094;-69
2021/03/29 08:37:15;;;;;;;10.75;3.72;;;14.40;99.90;;;;;;5070418;28;20099;-69
2021/03/29 08:39:43;;;;;;;14.20;4.20;;;14.60;99.90;;;;;;5071423;28;20384;-69
2021/03/29 08:42:11;;;;;;;9.48;3.65;;;14.60;99.90;;;;;;5067616;28;20418;-69
2021/03/29 08:44:39;;;;;;;11.10;3.50;;;14.60;99.90;;;;;;5076000;28;20126;-70
2021/03/29 08:47:08;;;;;;;9.18;3.67;;;14.90;99.90;;;;;;5072332;28;20029;-69
2021/03/29 08:49:34;;;;;;;9.60;4.32;;;15.00;99.90;;;;;;5073149;28;20070;-69
2021/03/29 08:52:00;;;;;;;7.40;3.47;;;15.10;99.90;;;;;;5068664;28;20511;-69
2021/03/29 08:54:26;;;;;;;11.23;3.80;;;15.30;99.90;;;;;;5072254;28;20090;-70
2021/03/29 08:57:01;;;;;;;9.00;3.38;;;15.40;99.90;;;;;;5071944;28;20488;-70
2021/03/29 08:59:28;;;;;;;8.85;3.65;;;15.60;99.90;;;;;;5066768;28;20469;-69
2021/03/29 09:01:54;;;;;;;12.00;3.97;;;15.60;99.90;;;;;;5072285;28;20171;-69
2021/03/29 09:04:23;;;;;;;10.98;3.92;;;15.60;99.90;;;;;;5074529;28;20516;-69
2021/03/29 09:06:54;;;;;;;9.23;3.70;;;15.80;99.90;;;;;;5078886;28;20028;-69
2021/03/29 09:09:22;;;;;;;10.23;3.53;;;16.00;99.90;;;;;;5066906;28;20090;-70
2021/03/29 09:11:49;;;;;;;9.68;3.25;;;16.20;99.90;;;;;;5073093;28;20024;-70
2021/03/29 09:14:16;;;;;;;8.32;3.10;;;16.20;99.90;;;;;;5070959;28;20032;-71
2021/03/29 09:16:44;;;;;;;10.93;3.40;;;16.30;99.90;;;;;;5066357;28;20040;-70
2021/03/29 09:19:17;;;;;;;12.27;3.70;;;16.40;99.90;;;;;;5067619;28;20025;-71
2021/03/29 09:21:54;;;;;;;11.00;3.10;;;16.60;99.90;;;;;;5068452;28;20380;-72
2021/03/29 09:24:27;;;;;;;10.02;3.40;;;16.70;99.90;;;;;;5071199;28;20532;-71
2021/03/29 09:27:08;;;;;;;7.97;3.00;;;16.90;99.90;;;;;;5070034;28;20035;-71
2021/03/29 09:29:36;;;;;;;6.85;2.70;;;16.90;99.90;;;;;;5068967;28;20104;-71
2021/03/29 09:32:09;;;;;;;7.40;2.90;;;17.10;99.90;;;;;;5073531;28;20107;-71
2021/03/29 09:34:36;;;;;;;7.72;2.92;;;17.10;99.90;;;;;;5074104;28;20427;-71
2021/03/29 09:37:02;;;;;;;6.88;3.03;;;17.30;99.60;;;;;;5074255;28;20487;-71
2021/03/29 09:39:33;;;;;;;7.05;2.70;;;17.40;99.90;;;;;;5061322;28;20028;-72
2021/03/29 09:42:00;;;;;;;4.80;2.50;;;17.60;98.00;;;;;;5066941;28;20044;-71
2021/03/29 09:44:31;;;;;;;5.38;2.88;;;17.60;96.50;;;;;;5067069;28;20380;-71
2021/03/29 09:46:59;;;;;;;7.75;2.53;;;17.80;98.80;;;;;;5069376;28;20035;-71
2021/03/29 09:49:25;;;;;;;10.98;3.22;;;17.90;96.70;;;;;;5065965;28;20459;-71
2021/03/29 09:52:03;;;;;;;5.78;2.40;;;18.10;97.60;;;;;;5069631;28;20024;-71
2021/03/29 09:54:31;;;;;;;7.40;2.05;;;18.10;96.20;;;;;;5071686;28;20097;-71
2021/03/29 09:56:59;;;;;;;6.15;2.20;;;18.30;97.00;;;;;;5069221;28;20036;-71
2021/03/29 09:59:30;;;;;;;7.20;2.42;;;18.30;96.60;;;;;;5061407;28;20051;-70
2021/03/29 10:01:57;;;;;;;7.50;3.20;;;18.30;93.90;;;;;;5071958;28;20048;-69
2021/03/29 10:04:24;;;;;;;8.75;2.50;;;18.40;93.20;;;;;;5067193;28;20107;-69
2021/03/29 10:06:56;;;;;;;8.73;3.42;;;18.60;93.40;;;;;;5073034;28;20028;-69
2021/03/29 10:09:35;;;;;;;7.47;2.55;;;18.70;92.30;;;;;;5065067;28;20089;-70
2021/03/29 10:12:02;;;;;;;4.90;2.20;;;18.80;92.30;;;;;;5067057;28;20031;-70
2021/03/29 10:14:38;;;;;;;6.15;1.90;;;19.00;92.10;;;;;;5068574;28;20032;-70
2021/03/29 10:17:18;;;;;;;8.18;2.40;;;19.10;91.20;;;;;;5068913;28;20078;-70
2021/03/29 10:19:44;;;;;;;7.68;2.97;;;19.10;87.10;;;;;;5068837;28;20021;-69
2021/03/29 10:22:16;;;;;;;6.28;2.50;;;19.20;90.80;;;;;;5069317;28;20107;-69
2021/03/29 10:25:02;;;;;;;5.30;2.50;;;19.20;88.60;;;;;;5065288;28;20029;-70
2021/03/29 10:27:49;;;;;;;3.80;2.50;;;19.30;84.70;;;;;;5070213;28;20116;-70
2021/03/29 10:30:22;;;;;;;7.07;2.13;;;19.40;84.70;;;;;;5062497;28;20020;-71
2021/03/29 10:32:58;;;;;;;6.47;2.42;;;19.60;84.70;;;;;;5067470;28;20032;-69
2021/03/29 10:35:26;;;;;;;6.13;2.45;;;19.60;81.80;;;;;;5072242;28;20032;-69
2021/03/29 10:37:52;;;;;;;7.28;2.40;;;19.60;83.90;;;;;;5075668;28;20009;-69
2021/03/29 10:40:19;;;;;;;6.03;2.13;;;19.80;78.90;;;;;;5070666;28;20384;-69
2021/03/29 10:42:45;;;;;;;6.60;2.13;;;20.00;83.40;;;;;;5071704;28;20024;-72
2021/03/29 10:45:13;;;;;;;6.45;2.00;;;20.00;84.20;;;;;;5077270;28;20407;-70
2021/03/29 10:47:40;;;;;;;5.20;1.88;;;19.90;79.70;;;;;;5063248;28;20067;-71
2021/03/29 10:50:08;;;;;;;6.30;2.38;;;20.00;82.40;;;;;;5066512;28;20032;-71
2021/03/29 10:52:33;;;;;;;4.45;2.53;;;20.30;77.90;;;;;;5068536;28;20027;-71
2021/03/29 10:54:59;;;;;;;6.07;2.55;;;20.30;79.50;;;;;;5070439;28;20398;-71
2021/03/29 10:57:24;;;;;;;2.90;2.03;;;20.40;76.90;;;;;;5072605;28;20024;-71
2021/03/29 10:59:50;;;;;;;6.78;2.30;;;20.50;77.30;;;;;;5066627;28;20024;-71
2021/03/29 11:02:17;;;;;;;5.38;2.58;;;20.60;74.30;;;;;;5065764;28;20024;-71
2021/03/29 11:04:43;;;;;;;6.38;2.30;;;20.80;78.50;;;;;;5071822;28;20360;-70
2021/03/29 11:07:08;;;;;;;5.50;2.05;;;20.80;74.90;;;;;;5061115;28;20025;-71
2021/03/29 11:09:34;;;;;;;6.13;2.20;;;20.90;75.60;;;;;;5069570;28;20485;-71
2021/03/29 11:11:59;;;;;;;5.72;1.60;;;20.90;69.00;;;;;;5072713;28;20028;-71
2021/03/29 11:14:25;;;;;;;4.63;2.03;;;20.90;67.10;;;;;;5064754;28;20455;-70
2021/03/29 11:16:53;;;;;;;5.07;2.33;;;20.90;70.80;;;;;;5068320;28;20018;-71
2021/03/29 11:19:20;;;;;;;4.45;1.98;;;21.00;68.50;;;;;;5069439;28;20052;-71
2021/03/29 11:21:47;;;;;;;4.82;2.22;;;20.90;67.40;;;;;;5069180;28;20027;-71
2021/03/29 11:24:13;;;;;;;7.60;2.25;;;20.90;70.70;;;;;;5068300;28;20115;-70
2021/03/29 11:26:40;;;;;;;3.05;1.73;;;21.00;68.20;;;;;;5070498;28;20135;-71
2021/03/29 11:29:06;;;;;;;4.40;2.13;;;21.10;63.50;;;;;;5072405;28;20537;-71
2021/03/29 11:31:32;;;;;;;4.72;1.70;;;21.10;66.60;;;;;;5070947;28;20489;-70
2021/03/29 11:33:58;;;;;;;4.20;1.50;;;21.30;62.20;;;;;;5067757;28;20415;-71
2021/03/29 11:36:23;;;;;;;5.55;1.40;;;21.40;61.30;;;;;;5076796;28;20278;-71
2021/03/29 11:38:49;;;;;;;4.20;2.03;;;21.30;65.50;;;;;;5072967;28;20027;-71
2021/03/29 11:41:19;;;;;;;3.88;1.70;;;21.30;64.20;;;;;;5070928;28;20021;-71
2021/03/29 11:43:45;;;;;;;3.92;1.63;;;21.40;60.30;;;;;;5068637;28;20060;-71
2021/03/29 11:46:10;;;;;;;4.07;1.77;;;21.50;59.30;;;;;;5073619;28;20021;-70
2021/03/29 11:48:36;;;;;;;3.95;1.83;;;21.60;58.90;;;;;;5072452;28;20103;-70
2021/03/29 11:51:02;;;;;;;5.50;1.95;;;21.60;61.80;;;;;;5068084;28;20115;-71
2021/03/29 11:53:27;;;;;;;2.63;1.80;;;21.70;58.80;;;;;;5071051;28;20565;-71
2021/03/29 11:55:53;;;;;;;5.25;2.30;;;21.80;59.50;;;;;;5076113;28;20111;-71
2021/03/29 11:58:19;;;;;;;4.05;1.95;;;21.80;58.40;;;;;;5075769;28;20375;-71
2021/03/29 12:05:46;;;;;;;2.95;1.95;;;22.00;56.70;;;;;;5065280;28;20036;-71
2021/03/29 12:13:34;;;;;;;5.93;2.15;;;22.10;57.20;;;;;;5061786;28;20035;-70
2021/03/29 12:16:01;;;;;;;4.70;1.98;;;22.10;60.30;;;;;;5063852;28;20033;-70
2021/03/29 12:21:31;;;;;;;6.55;2.03;;;22.30;58.50;;;;;;5067185;28;20467;-70
2021/03/29 12:24:03;;;;;;;2.88;1.70;;;22.30;55.90;;;;;;5072513;28;20490;-70
2021/03/29 12:26:30;;;;;;;7.03;1.73;;;22.20;54.00;;;;;;5074389;28;20476;-71
2021/03/29 12:28:58;;;;;;;3.58;1.40;;;22.20;54.20;;;;;;5065967;28;20036;-71
2021/03/29 12:31:24;;;;;;;3.15;1.40;;;22.20;53.40;;;;;;5068489;28;20078;-70
2021/03/29 12:33:50;;;;;;;3.30;1.45;;;22.20;52.90;;;;;;5069358;28;20132;-71
2021/03/29 12:36:17;;;;;;;3.85;1.40;;;22.30;51.50;;;;;;5070070;28;20024;-70
2021/03/29 12:38:52;;;;;;;3.92;1.60;;;22.20;54.50;;;;;;5071699;28;20086;-71
2021/03/29 12:41:20;;;;;;;3.00;1.50;;;22.40;55.60;;;;;;5073624;28;20123;-71
2021/03/29 12:43:52;;;;;;;4.05;2.17;;;22.40;52.90;;;;;;5063235;28;20029;-70
2021/03/29 12:46:20;;;;;;;4.05;1.60;;;22.40;53.30;;;;;;5065920;28;20033;-70
2021/03/29 12:48:46;;;;;;;5.88;1.50;;;22.40;53.30;;;;;;5070314;28;20029;-71
2021/03/29 12:51:13;;;;;;;3.83;2.13;;;22.30;53.40;;;;;;5071037;28;20366;-70
2021/03/29 12:53:39;;;;;;;5.57;2.17;;;22.30;54.70;;;;;;5071120;28;20032;-70
2021/03/29 12:56:05;;;;;;;4.35;2.03;;;22.40;56.70;;;;;;5067707;28;20035;-70
2021/03/29 12:58:38;;;;;;;4.38;2.10;;;22.30;63.00;;;;;;5067773;28;20036;-70
2021/03/29 13:01:07;;;;;;;5.63;1.90;;;22.30;55.90;;;;;;5072063;28;20485;-71
2021/03/29 13:03:39;;;;;;;5.10;1.67;;;22.50;50.90;;;;;;5069816;28;20038;-70
2021/03/29 13:06:21;;;;;;;4.22;1.50;;;22.40;53.70;;;;;;5071205;28;20468;-71
2021/03/29 13:08:47;;;;;;;5.80;1.52;;;22.60;55.50;;;;;;5073597;28;20059;-71
2021/03/29 13:11:28;;;;;;;3.40;1.80;;;22.50;56.70;;;;;;5065464;28;20568;-70